createdAt,value
2018-07-16T00:00:16.223Z,16.74
2018-07-16T00:01:16.327Z,16.69
2018-07-16T00:02:16.606Z,16.60
2018-07-16T00:03:16.862Z,16.62
2018-07-16T00:04:17.134Z,16.72
2018-07-16T00:05:16.408Z,16.72
2018-07-16T00:06:16.667Z,16.69
2018-07-16T00:07:17.005Z,16.67
2018-07-16T00:08:16.304Z,16.71
2018-07-16T00:09:16.651Z,16.67
2018-07-16T00:10:16.930Z,16.65
2018-07-16T00:11:16.999Z,16.64
2018-07-16T00:12:16.269Z,16.68
2018-07-16T00:13:16.532Z,16.62
2018-07-16T00:14:16.798Z,16.56
2018-07-16T00:15:17.063Z,16.50
2018-07-16T00:16:16.310Z,16.43
2018-07-16T00:17:16.567Z,16.42
2018-07-16T00:18:16.825Z,16.36
2018-07-16T00:19:17.094Z,16.37
2018-07-16T00:20:16.365Z,16.29
2018-07-16T00:21:16.409Z,16.26
2018-07-16T00:22:16.674Z,16.22
2018-07-16T00:23:16.929Z,16.17
2018-07-16T00:24:17.202Z,16.16
2018-07-16T00:25:16.468Z,16.17
2018-07-16T00:26:16.745Z,16.26
2018-07-16T00:27:17.013Z,16.28
2018-07-16T00:28:16.271Z,16.26
2018-07-16T00:29:16.529Z,16.25
2018-07-16T00:30:16.797Z,16.37
2018-07-16T00:31:16.829Z,16.46
2018-07-16T00:32:17.092Z,16.43
2018-07-16T00:33:16.356Z,16.40
2018-07-16T00:34:16.613Z,16.39
2018-07-16T00:35:16.869Z,16.37
2018-07-16T00:36:17.444Z,16.37
2018-07-16T00:37:16.705Z,16.36
2018-07-16T00:38:16.965Z,16.35
2018-07-16T00:39:16.228Z,16.35
2018-07-16T00:40:16.507Z,16.37
2018-07-16T00:41:16.540Z,16.36
2018-07-16T00:42:17.071Z,16.36
2018-07-16T00:43:16.346Z,16.35
2018-07-16T00:44:16.635Z,16.35
2018-07-16T00:45:16.959Z,16.35
2018-07-16T00:46:16.222Z,16.35
2018-07-16T00:47:16.489Z,16.30
2018-07-16T00:48:16.750Z,16.33
2018-07-16T00:49:17.016Z,16.37
2018-07-16T00:50:16.280Z,16.40
2018-07-16T00:51:16.322Z,16.56
2018-07-16T00:52:16.583Z,16.56
2018-07-16T00:53:16.841Z,16.57
2018-07-16T00:54:17.074Z,16.60
2018-07-16T00:55:16.338Z,16.65
2018-07-16T00:56:16.606Z,16.67
2018-07-16T00:57:16.889Z,16.60
2018-07-16T00:58:17.156Z,16.58
2018-07-16T00:59:16.424Z,16.60
2018-07-16T01:00:16.695Z,16.67
2018-07-16T01:01:16.735Z,16.62
2018-07-16T01:02:17.009Z,16.56
2018-07-16T01:03:16.266Z,16.54
2018-07-16T01:04:16.517Z,16.53
2018-07-16T01:05:16.773Z,16.50
2018-07-16T01:06:17.037Z,16.49
2018-07-16T01:07:16.300Z,16.49
2018-07-16T01:08:16.559Z,16.49
2018-07-16T01:09:16.816Z,16.50
2018-07-16T01:10:17.073Z,16.51
2018-07-16T01:11:17.128Z,16.51
2018-07-16T01:12:16.382Z,16.64
2018-07-16T01:13:16.650Z,16.75
2018-07-16T01:14:16.906Z,16.71
2018-07-16T01:15:17.168Z,16.72
2018-07-16T01:16:16.433Z,16.68
2018-07-16T01:17:16.696Z,16.67
2018-07-16T01:18:16.948Z,16.67
2018-07-16T01:19:16.214Z,16.64
2018-07-16T01:20:16.490Z,16.64
2018-07-16T01:21:16.516Z,16.64
2018-07-16T01:22:16.832Z,16.65
2018-07-16T01:23:17.089Z,16.65
2018-07-16T01:24:16.352Z,16.67
2018-07-16T01:25:16.622Z,16.62
2018-07-16T01:26:16.880Z,16.62
2018-07-16T01:27:17.176Z,16.62
2018-07-16T01:28:16.436Z,16.67
2018-07-16T01:29:16.710Z,16.64
2018-07-16T01:30:16.991Z,16.62
2018-07-16T01:31:17.024Z,16.64
2018-07-16T01:32:16.286Z,16.67
2018-07-16T01:33:16.542Z,16.68
2018-07-16T01:34:16.820Z,16.60
2018-07-16T01:35:17.084Z,16.60
2018-07-16T01:36:16.340Z,16.54
2018-07-16T01:37:16.605Z,16.47
2018-07-16T01:38:16.860Z,16.44
2018-07-16T01:39:17.132Z,16.42
2018-07-16T01:40:16.399Z,16.42
2018-07-16T01:41:16.443Z,16.42
2018-07-16T01:42:16.703Z,16.47
2018-07-16T01:43:17.029Z,16.53
2018-07-16T01:44:16.288Z,16.44
2018-07-16T01:45:16.556Z,16.36
2018-07-16T01:46:16.816Z,16.33
2018-07-16T01:47:17.444Z,16.30
2018-07-16T01:48:16.696Z,16.22
2018-07-16T01:49:16.961Z,16.22
2018-07-16T01:50:16.243Z,16.24
2018-07-16T01:51:16.268Z,16.18
2018-07-16T01:52:16.525Z,16.21
2018-07-16T01:53:16.782Z,16.21
2018-07-16T01:54:17.057Z,16.21
2018-07-16T01:55:16.323Z,16.16
2018-07-16T01:56:16.593Z,16.09
2018-07-16T01:57:16.866Z,16.00
2018-07-16T01:58:17.133Z,16.00
2018-07-16T01:59:16.406Z,15.99
2018-07-16T02:00:16.697Z,15.98
2018-07-16T02:01:16.718Z,16.03
2018-07-16T02:02:16.985Z,15.95
2018-07-16T02:03:16.253Z,15.95
2018-07-16T02:04:16.505Z,16.03
2018-07-16T02:05:16.793Z,15.98
2018-07-16T02:06:17.058Z,16.00
2018-07-16T02:07:16.333Z,15.99
2018-07-16T02:08:16.593Z,16.00
2018-07-16T02:09:16.858Z,16.02
2018-07-16T02:10:17.121Z,16.06
2018-07-16T02:11:17.169Z,16.21
2018-07-16T02:12:16.436Z,16.28
2018-07-16T02:13:16.695Z,16.25
2018-07-16T02:14:16.947Z,16.32
2018-07-16T02:15:16.208Z,16.29
2018-07-16T02:16:16.460Z,16.13
2018-07-16T02:17:16.718Z,16.03
2018-07-16T02:18:16.974Z,16.03
2018-07-16T02:19:16.236Z,16.06
2018-07-16T02:20:16.523Z,16.10
2018-07-16T02:21:16.565Z,16.14
2018-07-16T02:22:16.366Z,16.17
2018-07-16T02:23:16.629Z,16.17
2018-07-16T02:24:16.900Z,16.21
2018-07-16T02:25:17.159Z,16.18
2018-07-16T02:26:16.427Z,16.21
2018-07-16T02:27:16.695Z,16.22
2018-07-16T02:28:16.967Z,16.35
2018-07-16T02:29:16.226Z,16.24
2018-07-16T02:30:16.495Z,16.25
2018-07-16T02:31:16.540Z,16.24
2018-07-16T02:32:16.815Z,16.26
2018-07-16T02:33:17.098Z,16.29
2018-07-16T02:34:16.365Z,16.29
2018-07-16T02:35:16.648Z,16.32
2018-07-16T02:36:16.907Z,16.33
2018-07-16T02:37:17.173Z,16.35
2018-07-16T02:38:16.433Z,16.35
2018-07-16T02:39:16.976Z,16.37
2018-07-16T02:40:16.245Z,16.37
2018-07-16T02:41:16.287Z,16.36
2018-07-16T02:42:16.552Z,16.36
2018-07-16T02:43:16.828Z,16.36
2018-07-16T02:44:17.397Z,16.39
2018-07-16T02:45:16.662Z,16.35
2018-07-16T02:46:16.921Z,16.32
2018-07-16T02:47:17.184Z,16.35
2018-07-16T02:48:16.463Z,16.33
2018-07-16T02:49:16.733Z,16.36
2018-07-16T02:50:16.991Z,16.43
2018-07-16T02:51:17.031Z,16.42
2018-07-16T02:52:16.290Z,16.39
2018-07-16T02:53:16.561Z,16.37
2018-07-16T02:54:16.820Z,16.39
2018-07-16T02:55:17.096Z,16.36
2018-07-16T02:56:16.379Z,16.46
2018-07-16T02:57:16.695Z,16.57
2018-07-16T02:58:16.965Z,16.51
2018-07-16T02:59:16.224Z,16.50
2018-07-16T03:00:16.502Z,16.51
2018-07-16T03:01:16.571Z,16.53
2018-07-16T03:02:16.849Z,16.89
2018-07-16T03:03:17.140Z,16.90
2018-07-16T03:04:16.399Z,16.79
2018-07-16T03:05:16.926Z,16.72
2018-07-16T03:06:17.193Z,16.65
2018-07-16T03:07:16.461Z,16.67
2018-07-16T03:08:16.725Z,16.68
2018-07-16T03:09:16.987Z,16.82
2018-07-16T03:10:16.266Z,16.94
2018-07-16T03:11:16.304Z,17.13
2018-07-16T03:12:16.567Z,17.02
2018-07-16T03:13:16.969Z,16.98
2018-07-16T03:14:16.233Z,17.04
2018-07-16T03:15:16.499Z,17.02
2018-07-16T03:16:16.762Z,17.00
2018-07-16T03:17:17.033Z,17.00
2018-07-16T03:18:16.303Z,17.02
2018-07-16T03:19:16.592Z,17.01
2018-07-16T03:20:16.858Z,16.98
2018-07-16T03:21:16.903Z,16.95
2018-07-16T03:22:17.171Z,16.97
2018-07-16T03:23:16.437Z,16.98
2018-07-16T03:24:16.711Z,16.91
2018-07-16T03:25:16.991Z,16.87
2018-07-16T03:26:16.568Z,16.84
2018-07-16T03:27:16.834Z,16.90
2018-07-16T03:28:17.098Z,16.90
2018-07-16T03:29:16.350Z,16.86
2018-07-16T03:30:16.621Z,16.76
2018-07-16T03:31:16.662Z,16.75
2018-07-16T03:32:16.933Z,16.75
2018-07-16T03:33:17.193Z,16.75
2018-07-16T03:34:16.455Z,16.78
2018-07-16T03:35:16.731Z,16.78
2018-07-16T03:36:17.001Z,16.76
2018-07-16T03:37:16.258Z,16.74
2018-07-16T03:38:16.518Z,16.72
2018-07-16T03:39:16.772Z,16.94
2018-07-16T03:40:17.034Z,16.93
2018-07-16T03:41:17.090Z,16.78
2018-07-16T03:42:16.353Z,16.74
2018-07-16T03:43:16.616Z,16.69
2018-07-16T03:44:16.874Z,16.68
2018-07-16T03:45:17.146Z,16.71
2018-07-16T03:46:16.406Z,16.69
2018-07-16T03:47:16.672Z,16.67
2018-07-16T03:48:16.932Z,16.67
2018-07-16T03:49:17.194Z,16.65
2018-07-16T03:50:16.459Z,16.62
2018-07-16T03:51:16.489Z,16.67
2018-07-16T03:52:16.750Z,16.65
2018-07-16T03:53:17.013Z,16.68
2018-07-16T03:54:16.346Z,16.68
2018-07-16T03:55:16.611Z,16.69
2018-07-16T03:56:16.879Z,17.02
2018-07-16T03:57:17.139Z,16.94
2018-07-16T03:58:16.395Z,16.91
2018-07-16T03:59:16.660Z,16.90
2018-07-16T04:00:16.930Z,16.87
2018-07-16T04:01:16.981Z,16.84
2018-07-16T04:02:16.232Z,16.87
2018-07-16T04:03:16.503Z,16.97
2018-07-16T04:04:16.760Z,17.00
2018-07-16T04:05:17.021Z,16.98
2018-07-16T04:06:16.278Z,16.91
2018-07-16T04:07:16.540Z,16.91
2018-07-16T04:08:16.799Z,16.93
2018-07-16T04:09:17.060Z,16.94
2018-07-16T04:10:16.337Z,16.94
2018-07-16T04:11:16.373Z,16.97
2018-07-16T04:12:16.633Z,17.01
2018-07-16T04:13:16.887Z,16.91
2018-07-16T04:14:17.157Z,16.91
2018-07-16T04:15:16.437Z,16.90
2018-07-16T04:16:16.692Z,16.91
2018-07-16T04:17:16.966Z,16.94
2018-07-16T04:18:16.219Z,16.79
2018-07-16T04:19:16.481Z,16.76
2018-07-16T04:20:16.746Z,16.82
2018-07-16T04:21:16.793Z,16.83
2018-07-16T04:22:17.060Z,16.84
2018-07-16T04:23:16.323Z,16.84
2018-07-16T04:24:16.582Z,16.83
2018-07-16T04:25:16.867Z,16.89
2018-07-16T04:26:17.155Z,16.83
2018-07-16T04:27:16.418Z,16.74
2018-07-16T04:28:16.677Z,16.82
2018-07-16T04:29:16.934Z,16.74
2018-07-16T04:30:17.196Z,16.75
2018-07-16T04:31:16.230Z,16.74
2018-07-16T04:32:16.495Z,16.79
2018-07-16T04:33:16.750Z,16.79
2018-07-16T04:34:17.013Z,16.79
2018-07-16T04:35:16.271Z,16.79
2018-07-16T04:36:16.536Z,16.78
2018-07-16T04:37:16.868Z,16.74
2018-07-16T04:38:17.134Z,16.74
2018-07-16T04:39:16.406Z,16.75
2018-07-16T04:40:16.674Z,16.91
2018-07-16T04:41:16.709Z,17.05
2018-07-16T04:42:16.969Z,16.98
2018-07-16T04:43:16.231Z,16.93
2018-07-16T04:44:16.494Z,16.86
2018-07-16T04:45:16.761Z,16.90
2018-07-16T04:46:17.012Z,16.89
2018-07-16T04:47:16.295Z,16.94
2018-07-16T04:48:16.550Z,16.89
2018-07-16T04:49:16.809Z,16.74
2018-07-16T04:50:17.074Z,16.69
2018-07-16T04:51:17.115Z,16.74
2018-07-16T04:52:16.390Z,16.82
2018-07-16T04:53:16.700Z,16.93
2018-07-16T04:54:16.978Z,16.84
2018-07-16T04:55:16.237Z,17.01
2018-07-16T04:56:16.572Z,17.02
2018-07-16T04:57:17.458Z,17.02
2018-07-16T04:58:16.721Z,17.02
2018-07-16T04:59:16.976Z,17.01
2018-07-16T05:00:16.244Z,16.98
2018-07-16T05:01:16.296Z,16.86
2018-07-16T05:02:16.555Z,16.90
2018-07-16T05:03:16.865Z,16.91
2018-07-16T05:04:16.319Z,16.91
2018-07-16T05:05:16.581Z,16.97
2018-07-16T05:06:16.841Z,17.00
2018-07-16T05:07:17.397Z,17.01
2018-07-16T05:08:16.653Z,17.05
2018-07-16T05:09:16.912Z,17.17
2018-07-16T05:10:17.177Z,17.17
2018-07-16T05:11:16.218Z,16.97
2018-07-16T05:12:16.476Z,16.89
2018-07-16T05:13:16.735Z,16.97
2018-07-16T05:14:16.997Z,16.97
2018-07-16T05:15:16.260Z,17.04
2018-07-16T05:16:16.513Z,17.07
2018-07-16T05:17:16.780Z,17.15
2018-07-16T05:18:17.111Z,16.97
2018-07-16T05:19:16.517Z,17.04
2018-07-16T05:20:16.777Z,16.95
2018-07-16T05:21:16.829Z,16.94
2018-07-16T05:22:17.094Z,17.02
2018-07-16T05:23:16.363Z,16.90
2018-07-16T05:24:16.624Z,16.90
2018-07-16T05:25:16.881Z,16.89
2018-07-16T05:26:17.154Z,16.79
2018-07-16T05:27:16.413Z,16.78
2018-07-16T05:28:16.676Z,16.82
2018-07-16T05:29:16.959Z,16.90
2018-07-16T05:30:16.259Z,16.90
2018-07-16T05:31:16.291Z,16.93
2018-07-16T05:32:16.670Z,16.97
2018-07-16T05:33:16.277Z,16.89
2018-07-16T05:34:16.546Z,16.87
2018-07-16T05:35:16.809Z,16.95
2018-07-16T05:36:17.090Z,16.97
2018-07-16T05:37:16.351Z,16.90
2018-07-16T05:38:16.898Z,16.76
2018-07-16T05:39:16.356Z,16.82
2018-07-16T05:40:16.624Z,16.82
2018-07-16T05:41:16.686Z,16.72
2018-07-16T05:42:16.939Z,16.76
2018-07-16T05:43:16.216Z,16.76
2018-07-16T05:44:16.491Z,16.95
2018-07-16T05:45:16.757Z,17.04
2018-07-16T05:46:17.024Z,16.98
2018-07-16T05:47:16.297Z,16.94
2018-07-16T05:48:16.574Z,16.94
2018-07-16T05:49:16.842Z,16.97
2018-07-16T05:50:17.097Z,17.08
2018-07-16T05:51:17.146Z,17.09
2018-07-16T05:52:16.411Z,17.08
2018-07-16T05:53:16.686Z,17.24
2018-07-16T05:54:16.954Z,17.26
2018-07-16T05:55:16.231Z,17.05
2018-07-16T05:56:16.493Z,17.04
2018-07-16T05:57:16.747Z,17.08
2018-07-16T05:58:17.043Z,17.02
2018-07-16T05:59:16.436Z,17.05
2018-07-16T06:00:16.723Z,17.15
2018-07-16T06:01:16.748Z,17.16
2018-07-16T06:02:17.006Z,17.08
2018-07-16T06:03:16.266Z,17.13
2018-07-16T06:04:16.535Z,17.13
2018-07-16T06:05:16.803Z,17.08
2018-07-16T06:06:17.064Z,17.16
2018-07-16T06:07:16.322Z,17.20
2018-07-16T06:08:16.585Z,17.24
2018-07-16T06:09:16.845Z,17.24
2018-07-16T06:10:17.100Z,17.30
2018-07-16T06:11:17.145Z,17.33
2018-07-16T06:12:16.410Z,17.34
2018-07-16T06:13:16.668Z,17.30
2018-07-16T06:14:16.922Z,17.17
2018-07-16T06:15:17.198Z,17.26
2018-07-16T06:16:16.462Z,17.33
2018-07-16T06:17:16.730Z,17.41
2018-07-16T06:18:16.987Z,17.34
2018-07-16T06:19:16.259Z,17.41
2018-07-16T06:20:16.532Z,17.45
2018-07-16T06:21:16.573Z,17.49
2018-07-16T06:22:16.835Z,17.52
2018-07-16T06:23:17.101Z,17.61
2018-07-16T06:24:16.362Z,17.59
2018-07-16T06:25:16.643Z,17.54
2018-07-16T06:26:16.942Z,17.60
2018-07-16T06:27:16.201Z,17.68
2018-07-16T06:28:16.465Z,17.67
2018-07-16T06:29:16.726Z,17.74
2018-07-16T06:30:16.991Z,17.77
2018-07-16T06:31:17.045Z,17.77
2018-07-16T06:32:16.312Z,17.80
2018-07-16T06:33:16.571Z,17.82
2018-07-16T06:34:16.831Z,17.82
2018-07-16T06:35:17.113Z,17.81
2018-07-16T06:36:16.377Z,17.77
2018-07-16T06:37:16.631Z,17.71
2018-07-16T06:38:16.895Z,17.73
2018-07-16T06:39:17.161Z,17.80
2018-07-16T06:40:16.624Z,17.95
2018-07-16T06:41:16.817Z,17.96
2018-07-16T06:42:16.438Z,17.93
2018-07-16T06:43:16.701Z,18.02
2018-07-16T06:44:16.963Z,18.07
2018-07-16T06:45:16.227Z,18.12
2018-07-16T06:46:16.478Z,18.12
2018-07-16T06:47:16.729Z,18.05
2018-07-16T06:48:16.985Z,17.99
2018-07-16T06:49:16.247Z,17.91
2018-07-16T06:50:16.508Z,17.93
2018-07-16T06:51:16.560Z,17.89
2018-07-16T06:52:16.818Z,17.88
2018-07-16T06:53:17.078Z,17.92
2018-07-16T06:54:16.341Z,18.03
2018-07-16T06:55:16.617Z,18.09
2018-07-16T06:56:16.209Z,18.09
2018-07-16T06:57:16.473Z,18.12
2018-07-16T06:58:16.737Z,18.15
2018-07-16T06:59:17.000Z,18.18
2018-07-16T07:00:16.266Z,18.35
2018-07-16T07:01:16.317Z,18.42
2018-07-16T07:02:16.644Z,18.39
2018-07-16T07:03:16.945Z,18.33
2018-07-16T07:04:16.201Z,18.33
2018-07-16T07:05:16.453Z,18.33
2018-07-16T07:06:16.722Z,18.31
2018-07-16T07:07:16.996Z,18.44
2018-07-16T07:08:16.254Z,18.42
2018-07-16T07:09:16.520Z,18.21
2018-07-16T07:10:16.795Z,18.17
2018-07-16T07:11:16.835Z,18.18
2018-07-16T07:12:17.105Z,18.13
2018-07-16T07:13:16.370Z,18.21
2018-07-16T07:14:16.631Z,18.28
2018-07-16T07:15:16.895Z,18.50
2018-07-16T07:16:17.170Z,18.57
2018-07-16T07:17:16.437Z,18.64
2018-07-16T07:18:16.748Z,18.61
2018-07-16T07:19:16.240Z,18.59
2018-07-16T07:20:16.514Z,18.57
2018-07-16T07:21:16.534Z,18.59
2018-07-16T07:22:16.800Z,18.61
2018-07-16T07:23:17.069Z,18.59
2018-07-16T07:24:16.335Z,18.62
2018-07-16T07:25:16.671Z,18.65
2018-07-16T07:26:17.016Z,18.40
2018-07-16T07:27:16.276Z,18.38
2018-07-16T07:28:16.529Z,18.36
2018-07-16T07:29:16.794Z,18.31
2018-07-16T07:30:17.068Z,18.28
2018-07-16T07:31:17.110Z,18.28
2018-07-16T07:32:16.378Z,18.25
2018-07-16T07:33:16.639Z,18.22
2018-07-16T07:34:16.898Z,18.24
2018-07-16T07:35:16.696Z,18.35
2018-07-16T07:36:17.152Z,18.38
2018-07-16T07:37:16.416Z,18.28
2018-07-16T07:38:16.677Z,18.28
2018-07-16T07:39:16.948Z,18.26
2018-07-16T07:40:16.220Z,18.19
2018-07-16T07:41:16.251Z,18.18
2018-07-16T07:42:16.521Z,18.22
2018-07-16T07:43:17.051Z,18.17
2018-07-16T07:44:16.306Z,18.17
2018-07-16T07:45:16.565Z,18.19
2018-07-16T07:46:16.830Z,18.17
2018-07-16T07:47:17.095Z,18.12
2018-07-16T07:48:16.362Z,18.12
2018-07-16T07:49:16.627Z,18.13
2018-07-16T07:50:16.892Z,18.17
2018-07-16T07:51:16.913Z,18.19
2018-07-16T07:52:17.179Z,18.21
2018-07-16T07:53:16.438Z,18.22
2018-07-16T07:54:16.809Z,18.24
2018-07-16T07:55:16.768Z,18.28
2018-07-16T07:56:16.967Z,18.29
2018-07-16T07:57:16.230Z,18.33
2018-07-16T07:58:16.492Z,18.44
2018-07-16T07:59:16.751Z,18.35
2018-07-16T08:00:17.021Z,18.24
2018-07-16T08:01:17.072Z,18.26
2018-07-16T08:02:16.336Z,18.32
2018-07-16T08:03:16.612Z,18.38
2018-07-16T08:04:17.095Z,18.39
2018-07-16T08:05:16.354Z,18.49
2018-07-16T08:06:16.613Z,18.61
2018-07-16T08:07:16.871Z,18.64
2018-07-16T08:08:17.140Z,18.75
2018-07-16T08:09:16.400Z,18.90
2018-07-16T08:10:16.706Z,18.88
2018-07-16T08:11:16.748Z,18.88
2018-07-16T08:12:16.330Z,18.68
2018-07-16T08:13:16.607Z,18.71
2018-07-16T08:14:16.889Z,18.64
2018-07-16T08:15:17.424Z,18.68
2018-07-16T08:16:16.702Z,18.72
2018-07-16T08:17:16.718Z,18.69
2018-07-16T08:18:17.016Z,18.66
2018-07-16T08:19:16.305Z,18.68
2018-07-16T08:20:16.635Z,18.65
2018-07-16T08:21:16.655Z,18.65
2018-07-16T08:22:16.937Z,18.65
2018-07-16T08:23:16.219Z,18.94
2018-07-16T08:24:16.497Z,18.97
2018-07-16T08:25:16.842Z,18.95
2018-07-16T08:26:17.138Z,19.24
2018-07-16T08:27:16.411Z,19.38
2018-07-16T08:28:16.737Z,19.44
2018-07-16T08:29:16.305Z,19.42
2018-07-16T08:30:16.603Z,19.33
2018-07-16T08:31:16.622Z,19.29
2018-07-16T08:32:16.890Z,19.19
2018-07-16T08:33:16.295Z,19.24
2018-07-16T08:34:16.589Z,19.29
2018-07-16T08:35:16.869Z,19.55
2018-07-16T08:36:17.159Z,19.59
2018-07-16T08:37:16.463Z,19.47
2018-07-16T08:38:16.749Z,19.51
2018-07-16T08:39:17.043Z,19.59
2018-07-16T08:40:16.330Z,19.84
2018-07-16T08:41:16.357Z,20.00
2018-07-16T08:42:16.630Z,20.10
2018-07-16T08:43:16.914Z,19.96
2018-07-16T08:44:17.202Z,19.97
2018-07-16T08:45:16.498Z,20.17
2018-07-16T08:46:16.825Z,20.33
2018-07-16T08:47:16.219Z,20.14
2018-07-16T08:48:16.488Z,20.11
2018-07-16T08:49:16.749Z,20.13
2018-07-16T08:50:17.027Z,20.32
2018-07-16T08:51:17.079Z,20.71
2018-07-16T08:52:16.340Z,20.83
2018-07-16T08:53:16.601Z,20.90
2018-07-16T08:54:16.855Z,20.98
2018-07-16T08:55:17.124Z,20.80
2018-07-16T08:56:16.395Z,20.65
2018-07-16T08:57:16.665Z,20.93
2018-07-16T08:58:16.926Z,21.12
2018-07-16T08:59:17.228Z,21.06
2018-07-16T09:00:16.676Z,21.52
2018-07-16T09:01:16.720Z,21.41
2018-07-16T09:02:16.989Z,21.16
2018-07-16T09:03:16.242Z,20.90
2018-07-16T09:04:16.508Z,21.00
2018-07-16T09:05:16.772Z,20.94
2018-07-16T09:06:17.047Z,21.13
2018-07-16T09:07:16.404Z,21.33
2018-07-16T09:08:16.909Z,21.60
2018-07-16T09:09:17.166Z,22.07
2018-07-16T09:10:16.435Z,21.80
2018-07-16T09:11:16.584Z,21.80
2018-07-16T09:12:17.013Z,21.71
2018-07-16T09:13:16.399Z,21.57
2018-07-16T09:14:16.934Z,21.78
2018-07-16T09:15:17.200Z,22.42
2018-07-16T09:16:16.461Z,22.24
2018-07-16T09:17:16.724Z,22.22
2018-07-16T09:18:16.984Z,22.56
2018-07-16T09:19:16.268Z,22.67
2018-07-16T09:20:16.739Z,23.12
2018-07-16T09:21:16.761Z,23.27
2018-07-16T09:22:17.022Z,23.23
2018-07-16T09:23:16.278Z,23.51
2018-07-16T09:24:16.542Z,23.19
2018-07-16T09:25:16.809Z,23.02
2018-07-16T09:26:17.073Z,23.74
2018-07-16T09:27:16.334Z,23.76
2018-07-16T09:28:16.596Z,23.92
2018-07-16T09:29:16.853Z,24.20
2018-07-16T09:30:17.135Z,23.50
2018-07-16T09:31:17.158Z,23.41
2018-07-16T09:32:16.429Z,23.11
2018-07-16T09:33:16.693Z,23.18
2018-07-16T09:34:16.955Z,23.64
2018-07-16T09:35:16.223Z,23.90
2018-07-16T09:36:16.507Z,23.78
2018-07-16T09:37:16.777Z,23.58
2018-07-16T09:38:17.031Z,23.76
2018-07-16T09:39:16.290Z,23.33
2018-07-16T09:40:16.565Z,23.13
2018-07-16T09:41:16.620Z,23.69
2018-07-16T09:42:16.889Z,24.03
2018-07-16T09:43:17.157Z,24.34
2018-07-16T09:44:16.451Z,24.85
2018-07-16T09:45:16.759Z,24.71
2018-07-16T09:46:17.026Z,25.35
2018-07-16T09:47:16.281Z,25.83
2018-07-16T09:48:16.546Z,26.36
2018-07-16T09:49:16.805Z,26.62
2018-07-16T09:50:17.081Z,25.64
2018-07-16T09:51:17.146Z,25.33
2018-07-16T09:52:16.416Z,24.60
2018-07-16T09:53:16.683Z,24.76
2018-07-16T09:54:16.938Z,24.92
2018-07-16T09:55:16.208Z,25.36
2018-07-16T09:56:16.540Z,25.71
2018-07-16T09:57:16.816Z,25.62
2018-07-16T09:58:17.084Z,25.87
2018-07-16T09:59:16.347Z,26.09
2018-07-16T10:00:16.631Z,26.24
2018-07-16T10:01:16.652Z,24.92
2018-07-16T10:02:16.917Z,24.92
2018-07-16T10:03:17.181Z,24.10
2018-07-16T10:04:16.447Z,24.18
2018-07-16T10:05:16.702Z,24.85
2018-07-16T10:06:16.965Z,25.28
2018-07-16T10:07:16.241Z,25.40
2018-07-16T10:08:16.540Z,25.36
2018-07-16T10:09:16.843Z,25.62
2018-07-16T10:10:17.108Z,25.36
2018-07-16T10:11:17.151Z,25.56
2018-07-16T10:12:16.401Z,25.40
2018-07-16T10:13:16.662Z,25.11
2018-07-16T10:14:16.928Z,25.31
2018-07-16T10:15:17.187Z,25.56
2018-07-16T10:16:16.456Z,25.43
2018-07-16T10:17:16.714Z,25.35
2018-07-16T10:18:16.985Z,24.81
2018-07-16T10:19:16.398Z,25.13
2018-07-16T10:20:16.753Z,24.75
2018-07-16T10:21:16.694Z,23.62
2018-07-16T10:22:16.947Z,23.59
2018-07-16T10:23:16.209Z,24.10
2018-07-16T10:24:16.479Z,24.10
2018-07-16T10:25:16.740Z,24.16
2018-07-16T10:26:17.010Z,24.20
2018-07-16T10:27:16.270Z,23.84
2018-07-16T10:28:16.530Z,23.91
2018-07-16T10:29:16.801Z,24.06
2018-07-16T10:30:17.072Z,23.83
2018-07-16T10:31:17.117Z,24.13
2018-07-16T10:32:16.381Z,24.06
2018-07-16T10:33:16.654Z,23.96
2018-07-16T10:34:16.941Z,24.03
2018-07-16T10:35:17.196Z,24.06
2018-07-16T10:36:16.450Z,23.70
2018-07-16T10:37:16.713Z,23.70
2018-07-16T10:38:16.979Z,23.76
2018-07-16T10:39:16.302Z,23.51
2018-07-16T10:40:16.620Z,23.58
2018-07-16T10:41:16.665Z,23.59
2018-07-16T10:42:16.938Z,23.64
2018-07-16T10:43:16.194Z,23.54
2018-07-16T10:44:16.456Z,23.59
2018-07-16T10:45:16.732Z,23.78
2018-07-16T10:46:16.989Z,23.91
2018-07-16T10:47:16.258Z,23.47
2018-07-16T10:48:16.521Z,23.66
2018-07-16T10:49:16.780Z,23.81
2018-07-16T10:50:17.037Z,23.92
2018-07-16T10:51:17.102Z,23.77
2018-07-16T10:52:16.374Z,23.58
2018-07-16T10:53:16.631Z,22.88
2018-07-16T10:54:16.896Z,22.84
2018-07-16T10:55:17.191Z,22.98
2018-07-16T10:56:16.666Z,23.22
2018-07-16T10:57:16.933Z,23.13
2018-07-16T10:58:17.190Z,23.04
2018-07-16T10:59:16.454Z,23.26
2018-07-16T11:00:16.726Z,23.44
2018-07-16T11:01:16.773Z,23.48
2018-07-16T11:02:17.035Z,23.52
2018-07-16T11:03:16.291Z,23.59
2018-07-16T11:04:16.549Z,23.76
2018-07-16T11:05:16.832Z,24.05
2018-07-16T11:06:17.185Z,23.94
2018-07-16T11:07:16.458Z,23.78
2018-07-16T11:08:16.712Z,23.85
2018-07-16T11:09:16.986Z,24.01
2018-07-16T11:10:16.271Z,23.91
2018-07-16T11:11:16.302Z,23.50
2018-07-16T11:12:16.557Z,23.40
2018-07-16T11:13:16.817Z,23.34
2018-07-16T11:14:17.068Z,23.62
2018-07-16T11:15:16.325Z,23.83
2018-07-16T11:16:16.590Z,23.77
2018-07-16T11:17:16.853Z,23.64
2018-07-16T11:18:17.106Z,23.57
2018-07-16T11:19:16.373Z,24.16
2018-07-16T11:20:16.645Z,24.49
2018-07-16T11:21:16.671Z,24.74
2018-07-16T11:22:16.926Z,24.83
2018-07-16T11:23:17.184Z,25.03
2018-07-16T11:24:16.449Z,24.41
2018-07-16T11:25:16.714Z,24.23
2018-07-16T11:26:16.969Z,24.24
2018-07-16T11:27:16.232Z,24.71
2018-07-16T11:28:16.499Z,26.01
2018-07-16T11:29:16.758Z,26.17
2018-07-16T11:30:17.020Z,26.58
2018-07-16T11:31:17.074Z,27.18
2018-07-16T11:32:16.341Z,26.98
2018-07-16T11:33:16.597Z,27.10
2018-07-16T11:34:16.856Z,27.24
2018-07-16T11:35:17.183Z,27.17
2018-07-16T11:36:16.510Z,27.52
2018-07-16T11:37:16.778Z,27.86
2018-07-16T11:38:17.044Z,27.86
2018-07-16T11:39:16.314Z,28.37
2018-07-16T11:40:16.595Z,28.00
2018-07-16T11:41:16.643Z,27.88
2018-07-16T11:42:16.903Z,28.23
2018-07-16T11:43:17.168Z,28.14
2018-07-16T11:44:16.423Z,28.00
2018-07-16T11:45:16.675Z,27.29
2018-07-16T11:46:16.959Z,27.61
2018-07-16T11:47:16.439Z,27.60
2018-07-16T11:48:16.697Z,29.08
2018-07-16T11:49:16.964Z,29.45
2018-07-16T11:50:16.221Z,28.61
2018-07-16T11:51:16.277Z,28.73
2018-07-16T11:52:16.555Z,28.14
2018-07-16T11:53:17.017Z,27.74
2018-07-16T11:54:16.272Z,27.95
2018-07-16T11:55:16.538Z,28.25
2018-07-16T11:56:16.800Z,27.71
2018-07-16T11:57:17.070Z,27.40
2018-07-16T11:58:16.331Z,26.88
2018-07-16T11:59:16.611Z,26.88
2018-07-16T12:00:16.984Z,26.33
2018-07-16T12:01:17.038Z,26.09
2018-07-16T12:02:16.293Z,26.02
2018-07-16T12:03:16.562Z,26.30
2018-07-16T12:04:16.824Z,25.94
2018-07-16T12:05:17.120Z,25.56
2018-07-16T12:06:16.480Z,25.49
2018-07-16T12:07:16.736Z,25.56
2018-07-16T12:08:17.005Z,25.59
2018-07-16T12:09:16.266Z,25.38
2018-07-16T12:10:16.543Z,25.39
2018-07-16T12:11:16.590Z,25.33
2018-07-16T12:12:16.874Z,25.40
2018-07-16T12:13:16.245Z,25.36
2018-07-16T12:14:16.501Z,25.43
2018-07-16T12:15:16.759Z,25.28
2018-07-16T12:16:17.017Z,25.08
2018-07-16T12:17:16.277Z,24.92
2018-07-16T12:18:16.543Z,24.68
2018-07-16T12:19:16.803Z,24.72
2018-07-16T12:20:17.070Z,25.08
2018-07-16T12:21:17.122Z,25.22
2018-07-16T12:22:16.391Z,25.33
2018-07-16T12:23:16.652Z,25.57
2018-07-16T12:24:16.909Z,25.54
2018-07-16T12:25:17.167Z,25.46
2018-07-16T12:26:16.421Z,25.32
2018-07-16T12:27:16.689Z,25.28
2018-07-16T12:28:16.961Z,25.28
2018-07-16T12:29:16.233Z,25.25
2018-07-16T12:30:16.510Z,25.29
2018-07-16T12:31:16.550Z,25.31
2018-07-16T12:32:16.817Z,25.21
2018-07-16T12:33:17.090Z,25.21
2018-07-16T12:34:16.347Z,25.35
2018-07-16T12:35:16.605Z,25.46
2018-07-16T12:36:16.868Z,25.46
2018-07-16T12:37:17.129Z,25.56
2018-07-16T12:38:16.389Z,25.45
2018-07-16T12:39:16.652Z,25.38
2018-07-16T12:40:16.921Z,25.42
2018-07-16T12:41:17.015Z,25.56
2018-07-16T12:42:16.590Z,25.64
2018-07-16T12:43:16.858Z,25.61
2018-07-16T12:44:17.115Z,25.50
2018-07-16T12:45:16.385Z,25.54
2018-07-16T12:46:16.650Z,25.65
2018-07-16T12:47:16.913Z,25.64
2018-07-16T12:48:17.207Z,25.61
2018-07-16T12:49:16.721Z,25.47
2018-07-16T12:50:17.000Z,25.45
2018-07-16T12:51:17.039Z,25.21
2018-07-16T12:52:16.314Z,25.11